Time;durP1;ratioP1;P1;durP2;ratioP2;P2;SDS_P1;SDS_P2;PMS_P1;PMS_P2;Temp;Humidity;BMP_temperature;BMP_pressure;BME280_temperature;BME280_humidity;BME280_pressure;Samples;Min_cycle;Max_cycle;Signal;HPM_P1;HPM_P2
2023/10/11 00:00:40;;;;;;;7.47;5.10;;;;;;;25.38;42.01;99776.94;5093949;28;20035;-83
2023/10/11 00:05:50;;;;;;;10.38;5.43;;;;;;;25.38;41.95;99771.59;5093916;28;20093;-84
2023/10/11 00:08:17;;;;;;;7.82;5.25;;;;;;;25.38;42.23;99774.28;5093989;28;20028;-84
2023/10/11 00:10:47;;;;;;;9.95;5.90;;;;;;;25.37;41.95;99775.22;5093606;28;20460;-83
2023/10/11 00:13:15;;;;;;;8.75;5.55;;;;;;;25.37;41.94;99775.22;5093369;28;20565;-83
2023/10/11 00:15:51;;;;;;;9.90;6.13;;;;;;;25.36;42.00;99778.84;5092413;28;20028;-82
2023/10/11 00:18:19;;;;;;;;;;;;;;;25.37;42.07;99785.91;5094223;28;20021;-81
2023/10/11 00:20:50;;;;;;;8.93;5.60;;;;;;;25.33;41.75;99773.75;5093495;28;19919;-83
2023/10/11 00:23:19;;;;;;;10.10;5.82;;;;;;;25.35;42.03;99782.50;5093471;28;20028;-83
2023/10/11 00:25:44;;;;;;;9.30;5.68;;;;;;;25.35;41.76;99787.84;5093354;28;20028;-83
2023/10/11 00:28:11;;;;;;;9.50;5.68;;;;;;;25.35;41.66;99787.84;5091681;28;20077;-83
2023/10/11 00:30:38;;;;;;;11.23;5.85;;;;;;;25.33;41.63;99787.13;5093281;28;20024;-82
2023/10/11 00:33:07;;;;;;;9.25;5.68;;;;;;;25.33;42.02;99787.94;5093315;28;20035;-82
2023/10/11 00:35:33;;;;;;;8.70;5.20;;;;;;;25.33;41.85;99787.13;5093157;28;20015;-82
2023/10/11 00:38:00;;;;;;;11.82;5.88;;;;;;;25.29;41.86;99782.97;5093271;28;20393;-83
2023/10/11 00:40:31;;;;;;;8.55;5.00;;;;;;;25.30;41.39;99787.34;5092738;28;20028;-82
2023/10/11 00:42:57;;;;;;;10.10;5.65;;;;;;;25.28;41.66;99784.78;5092852;28;20435;-83
2023/10/11 00:45:25;;;;;;;9.75;5.82;;;;;;;25.28;41.52;99790.13;5093062;28;20020;-83
2023/10/11 00:47:53;;;;;;;9.23;5.60;;;;;;;25.26;41.53;99785.84;5092837;28;20504;-83
2023/10/11 00:50:21;;;;;;;9.75;5.28;;;;;;;25.27;41.73;99784.91;5092874;28;20026;-82
2023/10/11 00:52:50;;;;;;;9.63;4.82;;;;;;;25.24;41.69;99780.66;5093223;28;20091;-82
2023/10/11 00:55:18;;;;;;;8.40;5.20;;;;;;;25.24;41.57;99779.78;5093029;28;20020;-82
2023/10/11 00:57:47;;;;;;;9.18;5.00;;;;;;;25.24;41.56;99785.97;5092502;28;20032;-81
2023/10/11 01:00:16;;;;;;;9.10;5.22;;;;;;;25.23;41.49;99783.41;5092720;28;20085;-82
2023/10/11 01:02:47;;;;;;;8.30;5.40;;;;;;;25.23;41.40;99780.75;5092911;28;20426;-82
2023/10/11 01:05:14;;;;;;;10.25;5.25;;;;;;;25.22;41.41;99776.38;5092556;28;20048;-83
2023/10/11 01:07:39;;;;;;;7.90;5.25;;;;;;;25.19;41.38;99780.97;5092772;28;20035;-82
2023/10/11 01:10:06;;;;;;;9.88;5.13;;;;;;;25.19;41.26;99772.94;5091383;28;20028;-82
2023/10/11 01:12:32;;;;;;;9.80;5.63;;;;;;;25.18;41.30;99781.94;5092448;28;20024;-82
2023/10/11 01:14:58;;;;;;;9.52;5.47;;;;;;;25.15;41.46;99775.97;5092709;28;20028;-82
2023/10/11 01:17:26;;;;;;;12.60;5.40;;;;;;;25.15;41.21;99771.50;5092460;28;20120;-83
2023/10/11 01:19:52;;;;;;;10.45;5.20;;;;;;;25.13;41.12;99773.41;5092437;28;20471;-82
2023/10/11 01:22:18;;;;;;;10.23;5.35;;;;;;;25.12;41.27;99777.06;5092695;28;20091;-82
2023/10/11 01:24:47;;;;;;;9.23;5.28;;;;;;;25.09;41.24;99761.28;5091067;28;20431;-82
2023/10/11 01:27:16;;;;;;;9.05;5.05;;;;;;;25.08;41.41;99764.88;5091196;28;20437;-83
2023/10/11 01:29:41;;;;;;;10.40;5.05;;;;;;;25.09;41.47;99761.28;5092806;28;20105;-83
2023/10/11 01:32:07;;;;;;;9.90;4.88;;;;;;;25.09;41.59;99763.94;5092538;28;20453;-83
2023/10/11 01:34:32;;;;;;;9.20;5.35;;;;;;;25.07;41.34;99757.84;5092797;28;20427;-82
2023/10/11 01:37:01;;;;;;;10.50;4.95;;;;;;;25.04;41.60;99750.91;5092730;28;20099;-83
2023/10/11 01:39:26;;;;;;;8.40;5.38;;;;;;;25.05;41.59;99749.94;5091121;28;20024;-82
2023/10/11 01:41:58;;;;;;;10.82;5.40;;;;;;;25.06;41.57;99750.81;5091349;28;20031;-84
2023/10/11 01:44:24;;;;;;;8.52;5.07;;;;;;;25.06;41.54;99750.81;5092742;28;20028;-83
2023/10/11 01:46:49;;;;;;;12.32;5.53;;;;;;;25.07;41.80;99747.16;5092680;28;20448;-83
2023/10/11 01:49:15;;;;;;;10.88;5.50;;;;;;;25.05;41.76;99739.25;5092059;28;20113;-83
2023/10/11 01:51:46;;;;;;;8.27;5.03;;;;;;;25.06;41.89;99746.34;5092547;28;20028;-83
2023/10/11 01:54:12;;;;;;;10.38;5.50;;;;;;;25.05;41.95;99743.78;5092240;28;20032;-83
2023/10/11 01:56:41;;;;;;;8.52;5.60;;;;;;;25.05;41.78;99735.75;5092394;28;20396;-83
2023/10/11 01:59:07;;;;;;;8.18;5.25;;;;;;;25.03;41.79;99740.38;5092504;28;20031;-82
2023/10/11 02:01:59;;;;;;;9.02;4.95;;;;;;;25.02;41.97;99727.97;5092456;28;20028;-83
2023/10/11 02:04:20;;;;;;;8.25;5.70;;;;;;;25.01;42.34;99727.13;5092143;28;20052;-82
2023/10/11 02:06:49;;;;;;;8.93;5.32;;;;;;;25.02;41.92;99727.97;5092502;28;20026;-83
2023/10/11 02:09:14;;;;;;;9.10;4.57;;;;;;;25.00;42.44;99728.09;5093531;28;20048;-83
2023/10/11 02:11:42;;;;;;;8.85;5.05;;;;;;;25.02;42.49;99733.31;5096052;28;20056;-83
2023/10/11 02:14:08;;;;;;;8.85;5.22;;;;;;;25.03;42.18;99727.03;5096133;28;20069;-82
2023/10/11 02:16:33;;;;;;;8.27;5.10;;;;;;;25.00;42.36;99719.22;5096060;28;20411;-83
2023/10/11 02:19:00;;;;;;;7.90;5.00;;;;;;;25.02;42.70;99722.63;5095870;28;20023;-83
2023/10/11 02:21:29;;;;;;;7.57;4.88;;;;;;;25.00;42.41;99720.09;5095619;28;20024;-83
2023/10/11 02:23:59;;;;;;;7.35;5.03;;;;;;;25.02;42.43;99718.16;5095558;28;20023;-83
2023/10/11 02:26:33;;;;;;;7.72;5.25;;;;;;;25.03;42.30;99724.34;5096206;28;20451;-82
2023/10/11 02:29:16;;;;;;;7.45;4.88;;;;;;;24.98;42.63;99726.50;5095584;28;20032;-84
2023/10/11 02:31:41;;;;;;;8.27;5.30;;;;;;;24.98;42.67;99715.84;5094176;28;20024;-83
2023/10/11 02:34:13;;;;;;;8.20;5.18;;;;;;;24.98;42.55;99721.16;5095930;28;20031;-84
2023/10/11 02:36:44;;;;;;;9.40;5.38;;;;;;;24.98;42.34;99726.50;5095509;28;20369;-82
2023/10/11 02:39:17;;;;;;;8.82;5.20;;;;;;;24.98;42.57;99722.00;5094784;28;20043;-83
2023/10/11 02:41:50;;;;;;;9.10;5.03;;;;;;;24.98;42.45;99727.34;5095416;28;20361;-82
2023/10/11 02:44:16;;;;;;;7.25;5.43;;;;;;;24.97;42.54;99730.13;5095325;28;20020;-83
2023/10/11 02:46:44;;;;;;;7.72;5.07;;;;;;;24.96;42.29;99723.94;5095281;28;20161;-82
2023/10/11 02:49:19;;;;;;;7.68;4.90;;;;;;;24.96;42.32;99725.75;5094952;28;20093;-82
2023/10/11 02:51:53;;;;;;;10.32;5.03;;;;;;;24.95;42.31;99722.25;5094625;28;20436;-82
2023/10/11 02:54:19;;;;;;;6.95;5.25;;;;;;;24.93;42.30;99724.16;5095253;28;20035;-81
2023/10/11 02:56:47;;;;;;;7.45;5.20;;;;;;;24.93;42.50;99718.81;5095168;28;20423;-83
2023/10/11 02:59:23;;;;;;;8.02;4.63;;;;;;;24.89;42.56;99723.53;5094722;28;20025;-83
2023/10/11 03:02:04;;;;;;;10.20;5.47;;;;;;;24.88;42.32;99726.31;5094962;28;20027;-83
2023/10/11 03:04:41;;;;;;;8.23;4.90;;;;;;;24.88;42.30;99721.84;5094833;28;20048;-83
2023/10/11 03:07:23;;;;;;;6.90;4.55;;;;;;;24.89;42.55;99731.53;5094595;28;20040;-82
2023/10/11 03:09:49;;;;;;;8.13;5.13;;;;;;;24.90;42.37;99735.06;5094833;28;20020;-82
2023/10/11 03:12:30;;;;;;;10.15;5.80;;;;;;;24.88;42.45;99727.16;5093544;28;20020;-83
2023/10/11 03:14:56;;;;;;;9.02;5.22;;;;;;;24.85;42.31;99727.41;5094850;28;20047;-83
2023/10/11 03:17:22;;;;;;;7.93;4.70;;;;;;;24.87;42.36;99729.94;5094662;28;20016;-83
2023/10/11 03:19:49;;;;;;;6.95;4.85;;;;;;;24.85;42.59;99737.22;5094022;28;20044;-83
2023/10/11 03:22:21;;;;;;;7.72;5.18;;;;;;;24.85;42.64;99735.41;5093616;28;20473;-83
2023/10/11 03:24:54;;;;;;;6.93;4.78;;;;;;;24.84;42.44;99741.69;5094877;28;20047;-83
2023/10/11 03:27:27;;;;;;;8.07;5.35;;;;;;;24.84;42.37;99738.19;5094599;28;20021;-83
2023/10/11 03:29:53;;;;;;;8.88;5.00;;;;;;;24.83;42.45;99739.16;5094587;28;20557;-83
2023/10/11 03:32:18;;;;;;;7.88;4.80;;;;;;;24.83;42.76;99739.16;5093999;28;20024;-83
2023/10/11 03:34:43;;;;;;;8.05;4.90;;;;;;;24.79;42.65;99739.34;5094175;28;20020;-82
2023/10/11 03:37:10;;;;;;;7.97;4.82;;;;;;;24.78;42.58;99737.66;5094051;28;20032;-82
2023/10/11 03:42:12;;;;;;;8.90;5.43;;;;;;;24.74;42.55;99738.81;5094370;28;20476;-83
2023/10/11 03:44:47;;;;;;;8.40;4.68;;;;;;;24.76;42.67;99738.72;5093954;28;20036;-83
2023/10/11 03:47:14;;;;;;;8.27;4.85;;;;;;;24.74;42.56;99732.66;5094103;28;20078;-82
2023/10/11 03:55:12;;;;;;;7.75;4.65;;;;;;;24.70;42.60;99740.03;5071634;28;20070;-82
2023/10/11 03:57:41;;;;;;;6.93;4.60;;;;;;;24.70;42.85;99729.34;5071175;28;20036;-82
2023/10/11 04:02:42;;;;;;;8.55;5.63;;;;;;;24.69;42.83;99740.13;5071539;28;20458;-81
2023/10/11 04:05:08;;;;;;;7.57;5.13;;;;;;;24.68;42.85;99741.94;5070938;28;20048;-82
2023/10/11 04:07:33;;;;;;;9.15;5.50;;;;;;;24.69;42.75;99742.81;5071603;28;20033;-82
2023/10/11 04:10:04;;;;;;;7.90;5.53;;;;;;;24.66;42.75;99744.72;5071278;28;20082;-82
2023/10/11 04:12:30;;;;;;;7.70;4.93;;;;;;;24.62;42.71;99740.59;5070958;28;20024;-82
2023/10/11 04:14:59;;;;;;;8.05;5.45;;;;;;;24.62;42.79;99737.91;5071241;28;20024;-84
2023/10/11 04:17:26;;;;;;;7.75;5.43;;;;;;;24.63;43.04;99744.94;5062471;28;20033;-83
2023/10/11 04:20:00;;;;;;;6.53;4.78;;;;;;;24.59;42.81;99735.44;5050944;28;20059;-83
2023/10/11 04:22:27;;;;;;;8.18;5.20;;;;;;;24.60;43.02;99749.66;5051044;28;20041;-84
2023/10/11 04:24:55;;;;;;;7.97;5.15;;;;;;;24.58;43.17;99744.41;5051295;28;20512;-83
2023/10/11 04:30:17;;;;;;;8.88;5.40;;;;;;;24.56;43.18;99745.50;5072679;28;20044;-83
2023/10/11 04:32:45;;;;;;;8.05;5.30;;;;;;;24.56;42.95;99743.69;5072261;28;20472;-83
2023/10/11 04:35:25;;;;;;;9.13;5.40;;;;;;;24.54;42.94;99745.59;5072598;28;20059;-82
2023/10/11 04:37:54;;;;;;;7.97;5.28;;;;;;;24.56;43.18;99742.81;5072742;28;20100;-83
2023/10/11 04:40:23;;;;;;;8.35;5.50;;;;;;;24.56;42.94;99743.69;5055823;28;20029;-81
2023/10/11 04:43:04;;;;;;;9.13;5.57;;;;;;;24.56;42.94;99749.03;5053069;28;20435;-83
2023/10/11 04:45:31;;;;;;;9.05;5.35;;;;;;;24.56;42.95;99751.69;5052796;28;20481;-83
2023/10/11 04:47:58;;;;;;;9.10;5.10;;;;;;;24.54;43.04;99750.94;5058702;28;20020;-83
2023/10/11 04:50:24;;;;;;;8.30;5.07;;;;;;;24.50;43.11;99749.47;5074694;28;20031;-82
2023/10/11 04:52:49;;;;;;;8.45;5.50;;;;;;;24.49;43.05;99753.06;5072645;28;20401;-84
2023/10/11 04:55:19;;;;;;;8.45;5.07;;;;;;;24.49;43.04;99761.06;5072737;28;20515;-81
2023/10/11 04:58:04;;;;;;;7.35;5.25;;;;;;;24.48;43.05;99759.38;5072422;28;20016;-82
2023/10/11 05:00:43;;;;;;;7.88;5.60;;;;;;;24.48;43.11;99759.38;5072649;28;20028;-81
2023/10/11 05:03:09;;;;;;;7.65;4.95;;;;;;;24.46;42.99;99770.16;5072929;28;20074;-80
2023/10/11 05:05:35;;;;;;;8.18;5.30;;;;;;;24.44;43.33;99765.91;5093230;28;20388;-82
2023/10/11 05:08:20;;;;;;;7.10;4.95;;;;;;;24.44;43.24;99771.25;5084137;28;20024;-83
2023/10/11 05:10:46;;;;;;;7.97;5.10;;;;;;;24.44;43.04;99777.41;5085909;28;20447;-82
2023/10/11 05:13:13;;;;;;;9.45;5.80;;;;;;;24.43;43.30;99764.19;5084430;28;20032;-84
2023/10/11 05:15:47;;;;;;;8.75;5.18;;;;;;;24.42;43.30;99773.16;5084897;28;20028;-82
2023/10/11 05:18:18;;;;;;;7.38;5.00;;;;;;;24.48;43.18;99773.56;5087570;28;20032;-80
2023/10/11 05:20:57;;;;;;;7.47;5.28;;;;;;;24.45;43.47;99775.63;5092686;28;20036;-82
2023/10/11 05:23:32;;;;;;;8.43;5.25;;;;;;;24.41;43.60;99772.31;5091994;28;20153;-82
2023/10/11 05:25:58;;;;;;;8.65;5.00;;;;;;;24.40;43.50;99779.44;5090975;28;20039;-81
2023/10/11 05:28:27;;;;;;;7.65;5.32;;;;;;;24.43;43.30;99775.72;5088386;28;20025;-81
2023/10/11 05:52:48;;;;;;;10.98;5.63;;;;;;;24.46;43.73;99785.31;5095799;28;20511;-79
2023/10/11 05:55:16;;;;;;;11.15;6.32;;;;;;;24.47;43.70;99793.22;5095797;28;20055;-79
2023/10/11 05:57:42;;;;;;;9.88;6.00;;;;;;;24.49;43.96;99790.41;5095729;28;20016;-79
2023/10/11 06:00:23;;;;;;;10.30;5.70;;;;;;;24.47;44.03;99781.69;5095352;28;20107;-80
2023/10/11 06:02:49;;;;;;;11.70;6.53;;;;;;;24.45;43.86;99788.94;5095462;28;20036;-80
2023/10/11 06:05:17;;;;;;;11.52;5.40;;;;;;;24.48;44.06;99788.72;5095690;28;20044;-79
2023/10/11 06:07:42;;;;;;;10.30;5.93;;;;;;;24.47;43.96;99790.53;5099440;28;20051;-79
2023/10/11 06:10:08;;;;;;;11.70;6.15;;;;;;;24.44;43.92;99800.59;5096615;28;20032;-78
2023/10/11 06:12:35;;;;;;;9.65;6.07;;;;;;;24.42;44.09;99797.16;5108010;28;20106;-77
2023/10/11 06:15:12;;;;;;;10.18;5.82;;;;;;;24.45;44.03;99791.63;5098197;28;20047;-78
2023/10/11 06:17:48;;;;;;;9.38;5.28;;;;;;;24.43;43.96;99785.50;5111257;28;20031;-80
2023/10/11 06:20:38;;;;;;;12.68;6.30;;;;;;;24.39;44.23;99785.75;5094993;28;20040;-79
2023/10/11 06:23:03;;;;;;;10.40;5.40;;;;;;;24.38;43.82;99784.06;5094503;28;20031;-79
2023/10/11 06:28:17;;;;;;;8.70;5.07;;;;;;;24.37;44.15;99792.16;5094877;28;20035;-78
2023/10/11 06:30:46;;;;;;;9.48;6.10;;;;;;;24.39;44.11;99796.41;5094472;28;20500;-78
2023/10/11 06:33:13;;;;;;;10.63;5.63;;;;;;;24.40;44.04;99798.13;5094823;28;20028;-78
2023/10/11 06:35:49;;;;;;;9.13;5.68;;;;;;;24.42;43.88;99805.16;5094717;28;20020;-76
2023/10/11 06:38:14;;;;;;;10.07;5.70;;;;;;;24.40;43.93;99806.13;5094889;28;20020;-77
2023/10/11 06:40:46;;;;;;;10.07;5.82;;;;;;;24.39;43.93;99807.09;5098192;28;20548;-77
2023/10/11 06:43:12;;;;;;;10.45;5.97;;;;;;;24.39;43.82;99807.09;5114913;28;20023;-78
2023/10/11 06:45:40;;;;;;;8.18;5.63;;;;;;;24.38;44.09;99821.38;5096275;28;20030;-78
2023/10/11 06:48:09;;;;;;;8.18;5.60;;;;;;;24.39;43.91;99812.41;5094742;28;20036;-77
2023/10/11 06:50:38;;;;;;;9.02;5.35;;;;;;;24.35;43.98;99810.91;5093531;28;20085;-78
2023/10/11 06:53:07;;;;;;;12.18;6.45;;;;;;;24.38;43.62;99818.72;5094006;28;20077;-78
2023/10/11 06:55:40;;;;;;;9.60;5.68;;;;;;;24.38;43.82;99821.38;5094190;28;20373;-77
2023/10/11 06:58:09;;;;;;;9.98;6.18;;;;;;;24.38;43.71;99820.53;5093985;28;20016;-78
2023/10/11 07:00:45;;;;;;;11.20;5.88;;;;;;;24.38;43.86;99823.19;5073828;28;20609;-78
2023/10/11 07:05:51;;;;;;;7.03;4.93;;;;;;;24.42;43.73;99837.16;5094342;28;20039;-77
2023/10/11 07:08:18;;;;;;;9.93;5.10;;;;;;;24.42;43.62;99837.16;5093716;28;20043;-77
2023/10/11 07:11:00;;;;;;;9.18;5.78;;;;;;;24.42;43.55;99842.50;5094076;28;20040;-78
2023/10/11 07:13:29;;;;;;;9.35;5.30;;;;;;;24.44;43.39;99841.44;5093810;28;20024;-77
2023/10/11 07:15:57;;;;;;;9.18;5.30;;;;;;;24.38;43.67;99837.38;5103285;28;20105;-77
2023/10/11 07:18:25;;;;;;;10.65;5.93;;;;;;;24.37;43.65;99841.00;5094080;28;20033;-76
2023/10/11 07:21:09;;;;;;;8.40;5.20;;;;;;;24.37;43.74;99841.00;5093995;28;20035;-77
2023/10/11 07:23:46;;;;;;;8.52;5.28;;;;;;;24.37;43.63;99841.00;5093752;28;20081;-77
2023/10/11 07:26:25;;;;;;;9.05;5.53;;;;;;;24.39;43.61;99847.09;5073674;28;20404;-78
2023/10/11 07:28:52;;;;;;;10.32;5.25;;;;;;;24.39;43.43;99844.44;5073113;28;20055;-77
2023/10/11 07:31:32;;;;;;;10.00;5.82;;;;;;;24.38;43.77;99848.06;5080219;28;20345;-76
2023/10/11 07:34:06;;;;;;;8.52;5.40;;;;;;;24.36;43.56;99849.97;5094362;28;20510;-77
2023/10/11 07:36:38;;;;;;;7.13;4.90;;;;;;;24.36;43.69;99855.28;5093569;28;20146;-76
2023/10/11 07:39:14;;;;;;;7.80;5.22;;;;;;;24.39;43.56;99854.22;5092943;28;20031;-77
2023/10/11 07:41:43;;;;;;;;;;;;;;;24.34;43.53;99857.22;5093550;28;20095;-78
2023/10/11 07:44:10;;;;;;;11.43;6.32;;;;;;;24.35;43.43;99853.59;5093391;28;19922;-77
2023/10/11 07:46:39;;;;;;;8.02;5.25;;;;;;;24.33;43.72;99850.19;5093232;28;20028;-76
2023/10/11 07:49:05;;;;;;;10.95;5.63;;;;;;;24.28;43.58;99857.66;5093212;28;20032;-76
2023/10/11 07:51:36;;;;;;;8.50;5.40;;;;;;;24.26;43.88;99851.56;5093340;28;20028;-77
2023/10/11 07:54:06;;;;;;;7.38;5.28;;;;;;;24.26;43.71;99848.91;5093248;28;20059;-76
2023/10/11 07:56:38;;;;;;;8.02;5.63;;;;;;;24.29;43.57;99853.16;5092827;28;20492;-76
2023/10/11 07:59:07;;;;;;;10.63;5.65;;;;;;;24.26;43.88;99848.91;5092932;28;20024;-77
2023/10/11 08:01:42;;;;;;;7.88;5.43;;;;;;;24.28;43.83;99857.66;5093311;28;20154;-77
2023/10/11 08:04:09;;;;;;;7.70;5.03;;;;;;;24.28;43.85;99854.97;5092992;28;20128;-77
2023/10/11 08:06:39;;;;;;;7.85;5.50;;;;;;;24.29;43.87;99851.34;5092478;28;20119;-77
2023/10/11 08:09:06;;;;;;;7.50;4.97;;;;;;;24.29;43.88;99859.34;5092822;28;20028;-76
2023/10/11 08:11:45;;;;;;;9.23;5.75;;;;;;;24.29;43.86;99859.34;5092581;28;20095;-77
2023/10/11 08:14:15;;;;;;;10.02;5.80;;;;;;;24.25;44.49;99855.19;5093162;28;20035;-76
2023/10/11 08:16:41;;;;;;;8.05;5.55;;;;;;;24.25;44.32;99858.72;5093162;28;20024;-77
2023/10/11 08:19:07;;;;;;;7.90;5.55;;;;;;;24.25;44.20;99852.50;5092834;28;20056;-76
2023/10/11 08:21:32;;;;;;;9.32;5.93;;;;;;;24.28;44.23;99852.31;5092554;28;20043;-77
2023/10/11 08:23:58;;;;;;;9.10;5.00;;;;;;;24.29;44.04;99850.47;5092832;28;20028;-77
2023/10/11 08:26:24;;;;;;;9.38;6.00;;;;;;;24.25;44.38;99855.19;5092488;28;20099;-77
2023/10/11 08:28:51;;;;;;;10.00;6.28;;;;;;;24.24;44.50;99856.13;5092398;28;20076;-76
2023/10/11 08:31:35;;;;;;;9.15;5.97;;;;;;;24.27;44.67;99856.78;5092407;28;20400;-76
2023/10/11 08:34:04;;;;;;;8.73;5.97;;;;;;;24.27;44.83;99867.44;5092458;28;20096;-76
2023/10/11 08:36:35;;;;;;;8.73;6.13;;;;;;;24.29;44.70;99867.34;5092131;28;20028;-77
2023/10/11 08:39:06;;;;;;;8.05;5.80;;;;;;;24.28;44.90;99862.97;5092134;28;20061;-77
2023/10/11 08:41:34;;;;;;;9.20;5.57;;;;;;;24.31;44.56;99868.09;5091822;28;20028;-76
2023/10/11 08:44:03;;;;;;;8.60;5.50;;;;;;;24.31;44.85;99867.25;5092209;28;20050;-77
2023/10/11 08:46:33;;;;;;;9.43;6.40;;;;;;;24.32;45.13;99869.81;5071988;28;20025;-77
2023/10/11 08:49:00;;;;;;;9.27;6.00;;;;;;;24.33;45.13;99876.84;5072175;28;20032;-77
2023/10/11 08:51:36;;;;;;;10.18;6.40;;;;;;;24.34;45.04;99873.22;5072286;28;20029;-77
2023/10/11 08:54:03;;;;;;;10.30;6.40;;;;;;;24.32;45.06;99866.28;5076311;28;20380;-77
2023/10/11 08:56:29;;;;;;;10.55;6.20;;;;;;;24.32;45.04;99868.94;5092233;28;20492;-77
2023/10/11 08:58:54;;;;;;;10.02;5.95;;;;;;;24.35;45.04;99869.59;5092169;28;20024;-77
2023/10/11 09:01:24;;;;;;;7.85;5.82;;;;;;;24.37;45.04;99869.50;5092256;28;20468;-77
2023/10/11 09:04:05;;;;;;;9.95;6.40;;;;;;;24.36;45.45;99868.63;5092017;28;20048;-76
2023/10/11 09:06:34;;;;;;;9.52;6.60;;;;;;;24.35;45.56;99868.75;5092134;28;20529;-77
2023/10/11 09:09:00;;;;;;;10.45;6.40;;;;;;;24.35;45.36;99872.25;5091691;28;20032;-78
2023/10/11 09:11:28;;;;;;;8.80;6.32;;;;;;;24.36;45.59;99871.28;5090871;28;20389;-77
2023/10/11 09:14:13;;;;;;;9.60;6.50;;;;;;;24.35;45.58;99876.75;5091835;28;20024;-77
2023/10/11 09:16:42;;;;;;;9.68;6.78;;;;;;;24.36;45.72;99870.47;5111340;28;20015;-76
2023/10/11 09:19:10;;;;;;;9.70;6.93;;;;;;;24.35;45.55;99871.41;5109427;28;20051;-77
2023/10/11 09:21:37;;;;;;;8.55;6.53;;;;;;;24.34;45.86;99869.69;5096518;28;20503;-77
2023/10/11 09:24:20;;;;;;;11.07;7.03;;;;;;;24.35;45.79;99869.59;5095986;28;20028;-77
2023/10/11 09:27:08;;;;;;;9.60;7.07;;;;;;;24.35;45.96;99858.91;5096228;28;20099;-77
2023/10/11 09:29:34;;;;;;;9.63;6.82;;;;;;;24.35;45.56;99858.91;5096286;28;20031;-77
2023/10/11 09:31:59;;;;;;;9.73;6.97;;;;;;;24.37;45.77;99856.16;5095713;28;20024;-77
2023/10/11 09:34:29;;;;;;;10.30;7.03;;;;;;;24.37;46.13;99857.00;5095866;28;20062;-77
2023/10/11 09:36:56;;;;;;;9.90;6.93;;;;;;;24.38;46.04;99850.72;5096010;28;20031;-77
2023/10/11 09:39:22;;;;;;;10.18;7.05;;;;;;;24.36;46.19;99860.63;5095499;28;20055;-77
2023/10/11 09:41:53;;;;;;;8.65;6.72;;;;;;;24.37;45.91;99854.31;5095804;28;20032;-78
2023/10/11 09:44:26;;;;;;;10.35;6.95;;;;;;;24.39;46.13;99848.91;5095497;28;20028;-77
2023/10/11 09:46:52;;;;;;;9.48;7.30;;;;;;;24.41;46.27;99852.31;5095633;28;20024;-78
2023/10/11 09:49:21;;;;;;;9.32;6.88;;;;;;;24.42;45.92;99858.50;5095362;28;20035;-77
2023/10/11 09:51:47;;;;;;;9.52;7.25;;;;;;;24.42;46.52;99853.16;5095395;28;20093;-77
2023/10/11 09:54:13;;;;;;;9.95;6.75;;;;;;;24.42;46.47;99855.84;5093863;28;20024;-77
2023/10/11 09:57:04;;;;;;;9.68;6.25;;;;;;;24.44;46.82;99854.75;5095605;28;20070;-76
2023/10/11 09:59:47;;;;;;;8.23;6.15;;;;;;;24.45;46.23;99864.47;5095092;28;20037;-77
2023/10/11 10:02:33;;;;;;;9.35;6.75;;;;;;;24.46;46.57;99860.00;5074931;28;20491;-77
2023/10/11 10:05:04;;;;;;;9.93;6.65;;;;;;;24.48;46.51;99860.72;5075056;28;20400;-76
2023/10/11 10:10:07;;;;;;;9.90;6.95;;;;;;;24.48;46.46;99853.59;5095494;28;20024;-78
2023/10/11 10:12:34;;;;;;;8.77;6.53;;;;;;;24.50;46.22;99861.50;5094892;28;20455;-76
2023/10/11 10:15:22;;;;;;;8.85;7.20;;;;;;;24.50;46.58;99866.84;5100801;28;20019;-77
2023/10/11 10:18:05;;;;;;;9.57;6.30;;;;;;;24.50;46.42;99856.16;5099483;28;20032;-77
2023/10/11 10:20:33;;;;;;;9.80;6.75;;;;;;;24.49;46.66;99849.09;5094831;28;20024;-77
2023/10/11 10:23:16;;;;;;;10.25;6.70;;;;;;;24.50;46.48;99853.50;5094594;28;20028;-77
2023/10/11 10:26:11;;;;;;;9.35;6.90;;;;;;;24.51;46.60;99847.19;5095110;28;20032;-77
2023/10/11 10:28:36;;;;;;;9.07;6.47;;;;;;;24.51;46.41;99839.19;5093602;28;20020;-77
2023/10/11 10:31:12;;;;;;;7.75;5.95;;;;;;;24.51;46.32;99839.19;5094329;28;20558;-76
2023/10/11 10:33:39;;;;;;;8.88;6.60;;;;;;;24.53;46.40;99839.94;5095057;28;20055;-76
2023/10/11 10:36:28;;;;;;;9.63;6.22;;;;;;;24.54;46.39;99830.97;5094295;28;20036;-77
2023/10/11 10:38:59;;;;;;;9.88;6.40;;;;;;;24.58;46.18;99837.78;5092683;28;20154;-77
2023/10/11 10:41:32;;;;;;;8.48;6.32;;;;;;;24.59;46.32;99834.16;5101560;28;20020;-77
2023/10/11 10:44:19;;;;;;;9.27;6.43;;;;;;;24.60;46.53;99835.88;5114964;28;20020;-77
2023/10/11 10:46:55;;;;;;;9.65;6.40;;;;;;;24.62;46.09;99823.28;5096545;28;20059;-77
2023/10/11 10:49:37;;;;;;;;;;;;;;;24.64;46.01;99826.69;5094866;28;20046;-76
2023/10/11 10:52:17;;;;;;;8.27;6.32;;;;;;;24.65;46.08;99822.22;5094212;28;19972;-76
2023/10/11 10:55:01;;;;;;;13.38;7.07;;;;;;;24.66;46.31;99824.75;5094312;28;20028;-77
2023/10/11 10:57:27;;;;;;;10.35;6.75;;;;;;;24.68;46.14;99816.66;5094760;28;20380;-76
2023/10/11 10:59:54;;;;;;;8.27;6.43;;;;;;;24.71;46.24;99820.91;5094057;28;20024;-77
2023/10/11 11:02:21;;;;;;;10.60;6.18;;;;;;;24.70;46.04;99824.56;5094033;28;20043;-77
2023/10/11 11:04:47;;;;;;;9.73;7.05;;;;;;;24.72;46.06;99817.28;5093371;28;20048;-77
2023/10/11 11:07:23;;;;;;;9.48;7.00;;;;;;;24.73;46.21;99816.31;5092936;28;20035;-75
2023/10/11 11:09:54;;;;;;;9.13;6.65;;;;;;;24.73;45.83;99805.63;5093921;28;20057;-77
2023/10/11 11:12:27;;;;;;;11.80;7.28;;;;;;;24.74;45.88;99810.03;5078814;28;20113;-77
2023/10/11 11:14:54;;;;;;;9.00;6.68;;;;;;;24.78;45.79;99811.50;5079381;28;20012;-76
2023/10/11 11:17:20;;;;;;;9.13;6.53;;;;;;;24.80;45.82;99814.94;5093679;28;20027;-77
2023/10/11 11:20:12;;;;;;;9.73;6.68;;;;;;;24.83;45.49;99809.38;5093432;28;20099;-77
2023/10/11 11:22:38;;;;;;;8.20;6.43;;;;;;;24.86;45.41;99808.31;5093684;28;20103;-76
2023/10/11 11:25:26;;;;;;;8.68;6.32;;;;;;;24.86;45.24;99803.84;5093702;28;20020;-78
2023/10/11 11:28:08;;;;;;;9.82;6.03;;;;;;;24.88;45.68;99796.56;5094021;28;20099;-77
2023/10/11 11:30:34;;;;;;;10.32;6.20;;;;;;;24.89;45.52;99787.59;5093066;28;20150;-77
2023/10/11 11:33:13;;;;;;;9.70;6.72;;;;;;;24.91;45.29;99785.69;5093087;28;20118;-77
2023/10/11 11:35:55;;;;;;;8.43;5.70;;;;;;;24.92;45.46;99782.03;5092942;28;20066;-77
2023/10/11 11:38:21;;;;;;;8.10;6.13;;;;;;;24.96;45.13;99773.78;5093141;28;20024;-77
2023/10/11 11:41:03;;;;;;;8.43;5.50;;;;;;;24.95;45.18;99775.63;5093056;28;20028;-77
2023/10/11 11:43:33;;;;;;;8.60;6.15;;;;;;;24.97;45.05;99767.50;5092676;28;20032;-78
2023/10/11 11:46:01;;;;;;;9.35;6.03;;;;;;;24.99;45.33;99762.91;5090650;28;20062;-77
2023/10/11 11:48:27;;;;;;;9.27;6.07;;;;;;;25.00;45.22;99756.59;5092900;28;20090;-76
2023/10/11 11:50:56;;;;;;;7.97;5.72;;;;;;;25.00;45.11;99757.47;5093341;28;20484;-77
2023/10/11 11:53:21;;;;;;;7.80;5.65;;;;;;;25.03;45.23;99759.06;5093498;28;20099;-77
2023/10/11 11:55:47;;;;;;;9.65;5.97;;;;;;;25.03;44.97;99751.06;5093313;28;20176;-76
2023/10/11 11:58:16;;;;;;;9.18;5.72;;;;;;;25.04;44.98;99748.25;5093466;28;20766;-77
2023/10/11 12:01:08;;;;;;;10.95;5.93;;;;;;;25.06;44.96;99748.13;5092860;28;20031;-77
2023/10/11 12:03:36;;;;;;;8.38;5.55;;;;;;;25.09;44.89;99745.25;5092722;28;20450;-77
2023/10/11 12:06:21;;;;;;;10.25;6.15;;;;;;;25.09;44.84;99745.25;5083881;28;20034;-76
2023/10/11 12:08:47;;;;;;;7.88;5.68;;;;;;;25.10;44.84;99732.75;5087582;28;20016;-75
2023/10/11 12:11:15;;;;;;;7.78;5.90;;;;;;;25.12;44.50;99733.50;5084965;28;20063;-75
2023/10/11 12:13:40;;;;;;;8.80;5.85;;;;;;;25.13;44.63;99730.69;5086644;28;20081;-76
2023/10/11 12:16:09;;;;;;;7.93;5.40;;;;;;;25.14;44.62;99729.72;5088721;28;20025;-76
2023/10/11 12:18:34;;;;;;;8.65;5.55;;;;;;;25.13;44.50;99722.69;5097638;28;20106;-76
2023/10/11 12:21:10;;;;;;;9.13;5.45;;;;;;;25.15;44.34;99718.09;5084257;28;20119;-77
2023/10/11 12:23:37;;;;;;;8.18;5.15;;;;;;;25.15;44.54;99711.88;5085643;28;20031;-77
2023/10/11 12:26:04;;;;;;;7.95;5.18;;;;;;;25.15;44.66;99709.22;5081945;28;20028;-76
2023/10/11 12:28:29;;;;;;;8.60;5.32;;;;;;;25.17;44.56;99709.94;5079648;28;20107;-76
2023/10/11 12:30:54;;;;;;;8.02;5.13;;;;;;;25.17;44.27;99694.78;5087058;28;20595;-76
2023/10/11 12:33:20;;;;;;;8.10;5.00;;;;;;;25.18;44.18;99701.81;5083193;28;20392;-76